Time;durP1;ratioP1;P1;durP2;ratioP2;P2;SDS_P1;SDS_P2;PMS_P1;PMS_P2;Temp;Humidity;BMP_temperature;BMP_pressure;BME280_temperature;BME280_humidity;BME280_pressure;Samples;Min_cycle;Max_cycle;Signal;HPM_P1;HPM_P2
2021/12/11 00:01:04;;;;;;;10.07;2.40;;;3.10;99.90;;;;;;5113160;28;20043;-70
2021/12/11 00:03:38;;;;;;;9.25;2.63;;;3.10;99.90;;;;;;5113174;28;20032;-70
2021/12/11 00:06:21;;;;;;;14.13;3.10;;;3.10;99.90;;;;;;5113193;28;20035;-70
2021/12/11 00:08:49;;;;;;;13.60;2.95;;;3.10;99.90;;;;;;5094806;28;20068;-70
2021/12/11 00:11:31;;;;;;;12.70;2.80;;;3.10;99.90;;;;;;5095061;28;20032;-70
2021/12/11 00:14:00;;;;;;;14.45;2.42;;;3.10;99.90;;;;;;5113094;28;20509;-71
2021/12/11 00:16:30;;;;;;;11.13;2.42;;;3.10;99.90;;;;;;5113141;28;20046;-70
2021/12/11 00:19:11;;;;;;;17.00;2.90;;;3.10;99.90;;;;;;5113087;28;20044;-70
2021/12/11 00:21:37;;;;;;;12.95;2.65;;;3.10;99.90;;;;;;5113130;28;20147;-70
2021/12/11 00:24:13;;;;;;;18.92;2.80;;;3.10;99.90;;;;;;5112993;28;20044;-71
2021/12/11 00:26:47;;;;;;;12.07;2.60;;;3.10;99.90;;;;;;5116808;28;20108;-73
2021/12/11 00:29:20;;;;;;;10.25;2.75;;;3.10;99.90;;;;;;5116434;28;20048;-70
2021/12/11 00:31:49;;;;;;;10.77;2.97;;;3.10;99.90;;;;;;5115182;28;20126;-70
2021/12/11 00:34:18;;;;;;;8.82;2.35;;;3.10;99.90;;;;;;5116685;28;20074;-70
2021/12/11 00:37:15;;;;;;;12.35;2.53;;;3.10;99.90;;;;;;5082789;28;20399;-70
2021/12/11 00:40:06;;;;;;;9.27;2.33;;;3.10;99.90;;;;;;5076342;28;20434;-70
2021/12/11 00:42:34;;;;;;;;;;;3.20;99.90;;;;;;5077915;28;20101;-70
2021/12/11 00:45:09;;;;;;;13.60;2.20;;;3.10;99.90;;;;;;5098257;28;19943;-70
2021/12/11 00:47:43;;;;;;;11.25;2.92;;;3.20;99.90;;;;;;5096577;28;20050;-71
2021/12/11 00:50:14;;;;;;;13.57;3.72;;;3.10;99.90;;;;;;5094361;28;20036;-70
2021/12/11 00:53:29;;;;;;;16.38;6.22;;;3.20;99.90;;;;;;5093654;28;20169;-69
2021/12/11 00:56:03;;;;;;;9.88;2.58;;;3.10;99.90;;;;;;5073493;28;20036;-70
2021/12/11 00:58:32;;;;;;;11.52;2.15;;;3.10;99.90;;;;;;5094760;28;20392;-69
2021/12/11 01:01:07;;;;;;;17.35;2.67;;;3.10;99.90;;;;;;5094894;28;20039;-70
2021/12/11 01:03:38;;;;;;;6.80;2.33;;;3.10;99.90;;;;;;5080414;28;20125;-70
2021/12/11 01:06:09;;;;;;;12.57;2.90;;;3.10;99.90;;;;;;5100242;28;20071;-73
2021/12/11 01:08:39;;;;;;;;;;;3.10;99.90;;;;;;5116608;28;20580;-70
2021/12/11 01:11:12;;;;;;;8.90;2.63;;;3.10;99.90;;;;;;5101802;28;19908;-70
2021/12/11 01:13:49;;;;;;;8.82;2.95;;;3.10;99.90;;;;;;5095557;28;20036;-70
2021/12/11 01:16:16;;;;;;;12.02;2.88;;;3.10;99.90;;;;;;5077303;28;20125;-70
2021/12/11 01:18:47;;;;;;;12.23;2.45;;;3.10;99.90;;;;;;5095538;28;20040;-70
2021/12/11 01:21:44;;;;;;;15.18;3.10;;;3.10;99.90;;;;;;5095475;28;20031;-70
2021/12/11 01:24:42;;;;;;;9.82;2.85;;;3.10;99.90;;;;;;5077213;28;20577;-70
2021/12/11 01:27:11;;;;;;;13.15;2.78;;;3.00;99.90;;;;;;5095458;28;20051;-70
2021/12/11 01:29:37;;;;;;;10.18;2.55;;;3.10;99.90;;;;;;5095362;28;20115;-70
2021/12/11 01:32:04;;;;;;;12.48;2.97;;;3.00;99.90;;;;;;5095267;28;20165;-70
2021/12/11 01:34:31;;;;;;;9.60;1.92;;;3.10;99.90;;;;;;5095360;28;20036;-69
2021/12/11 01:36:59;;;;;;;14.43;3.15;;;3.10;99.90;;;;;;5094646;28;20046;-70
2021/12/11 01:39:30;;;;;;;17.08;3.92;;;3.10;99.90;;;;;;5077170;28;20040;-70
2021/12/11 01:41:57;;;;;;;;;;;3.00;99.90;;;;;;5095509;28;20036;-70
2021/12/11 01:44:34;;;;;;;12.40;2.65;;;3.00;99.90;;;;;;5076820;28;19914;-70
2021/12/11 01:47:19;;;;;;;11.45;2.78;;;3.00;99.90;;;;;;5094978;28;20054;-69
2021/12/11 01:49:50;;;;;;;9.90;2.40;;;3.00;99.90;;;;;;5076872;28;20882;-70
2021/12/11 01:52:31;;;;;;;14.85;3.20;;;3.00;99.90;;;;;;5095248;28;20035;-70
2021/12/11 01:54:57;;;;;;;14.93;3.30;;;3.00;99.90;;;;;;5094838;28;20032;-70
2021/12/11 01:57:28;;;;;;;13.38;2.88;;;3.00;99.90;;;;;;5094671;28;20497;-72
2021/12/11 02:00:01;;;;;;;13.57;2.65;;;3.00;99.90;;;;;;5076457;28;20040;-70
2021/12/11 02:02:30;;;;;;;10.77;2.28;;;3.00;99.90;;;;;;5076953;28;20043;-70
2021/12/11 02:04:56;;;;;;;13.77;3.22;;;3.00;99.90;;;;;;5073469;28;20035;-70
2021/12/11 02:07:35;;;;;;;12.50;2.83;;;3.00;99.90;;;;;;5076549;28;20074;-69
2021/12/11 02:10:10;;;;;;;12.93;2.67;;;2.90;99.90;;;;;;5072553;28;20063;-70
2021/12/11 02:12:40;;;;;;;11.63;3.00;;;3.00;99.90;;;;;;5074369;28;20120;-70
2021/12/11 02:15:11;;;;;;;12.88;3.80;;;3.00;99.90;;;;;;5074188;28;20040;-70
2021/12/11 02:17:52;;;;;;;11.82;3.03;;;3.00;99.90;;;;;;5056283;28;20063;-70
2021/12/11 02:20:34;;;;;;;12.07;2.45;;;2.90;99.90;;;;;;5074170;28;20045;-69
2021/12/11 02:23:00;;;;;;;14.27;3.00;;;2.90;99.90;;;;;;5073921;28;20044;-70
2021/12/11 02:25:34;;;;;;;13.55;3.28;;;2.90;99.90;;;;;;5073969;28;20448;-70
2021/12/11 02:28:09;;;;;;;20.17;2.88;;;2.90;99.90;;;;;;5073797;28;20060;-70
2021/12/11 02:30:53;;;;;;;10.95;3.00;;;2.90;99.90;;;;;;5073835;28;20029;-70
2021/12/11 02:33:26;;;;;;;10.73;3.38;;;2.90;99.90;;;;;;5072170;28;20028;-70
2021/12/11 02:36:08;;;;;;;15.07;3.92;;;2.80;99.90;;;;;;5072620;28;20055;-70
2021/12/11 02:38:51;;;;;;;16.17;2.78;;;2.90;99.90;;;;;;5073751;28;20037;-70
2021/12/11 02:41:35;;;;;;;10.10;2.67;;;2.90;99.90;;;;;;5055804;28;20043;-70
2021/12/11 02:44:15;;;;;;;7.65;2.10;;;2.90;99.90;;;;;;5073399;28;20036;-73
2021/12/11 02:46:48;;;;;;;8.15;2.33;;;2.90;99.90;;;;;;5055164;28;20519;-70
2021/12/11 02:49:20;;;;;;;12.93;3.67;;;2.90;99.90;;;;;;5073037;28;20430;-70
2021/12/11 02:51:59;;;;;;;10.85;2.78;;;2.90;99.90;;;;;;5073626;28;20045;-70
2021/12/11 02:54:43;;;;;;;10.45;2.78;;;2.90;99.90;;;;;;5055417;28;20044;-79
2021/12/11 02:57:17;;;;;;;10.57;2.80;;;2.90;99.90;;;;;;5079381;28;20043;-75
2021/12/11 02:59:45;;;;;;;14.30;3.65;;;2.90;99.90;;;;;;5075610;28;20047;-70
2021/12/11 03:02:17;;;;;;;14.02;2.60;;;2.90;99.90;;;;;;5093602;28;20058;-70
2021/12/11 03:04:51;;;;;;;10.93;2.20;;;2.80;99.90;;;;;;5075225;28;20036;-70
2021/12/11 03:07:20;;;;;;;10.13;2.40;;;2.80;99.90;;;;;;5092886;28;20392;-70
2021/12/11 03:09:53;;;;;;;11.18;2.70;;;2.80;99.90;;;;;;5093449;28;20039;-74
2021/12/11 03:12:21;;;;;;;11.52;3.03;;;2.80;99.90;;;;;;5075422;28;20040;-70
2021/12/11 03:14:47;;;;;;;14.75;3.15;;;2.80;99.90;;;;;;5093457;28;20031;-70
2021/12/11 03:17:16;;;;;;;11.60;2.70;;;2.80;99.90;;;;;;5093545;28;20067;-70
2021/12/11 03:19:44;;;;;;;11.95;2.83;;;2.60;99.90;;;;;;5075504;28;20051;-71
2021/12/11 03:22:16;;;;;;;10.13;2.40;;;2.60;99.90;;;;;;5075249;28;20071;-70
2021/12/11 03:24:42;;;;;;;10.23;2.65;;;2.60;99.90;;;;;;5075146;28;20483;-70
2021/12/11 03:27:08;;;;;;;16.50;3.25;;;2.60;99.90;;;;;;5093116;28;20401;-70
2021/12/11 03:29:34;;;;;;;15.48;2.78;;;2.60;99.90;;;;;;5092993;28;20057;-70
2021/12/11 03:32:01;;;;;;;13.65;2.42;;;2.60;99.90;;;;;;5093029;28;20074;-70
2021/12/11 03:34:28;;;;;;;10.65;2.42;;;2.60;99.90;;;;;;5093252;28;20085;-71
2021/12/11 03:36:56;;;;;;;15.90;2.65;;;2.50;99.90;;;;;;5093201;28;20043;-70
2021/12/11 03:39:29;;;;;;;9.65;2.88;;;2.60;99.90;;;;;;5093086;28;20051;-70
2021/12/11 03:41:57;;;;;;;10.15;2.75;;;2.50;99.90;;;;;;5093069;28;20157;-70
2021/12/11 03:44:28;;;;;;;10.50;2.58;;;2.50;99.90;;;;;;5092840;28;20538;-70
2021/12/11 03:46:54;;;;;;;13.27;3.10;;;2.60;99.90;;;;;;5074829;28;20087;-70
2021/12/11 03:49:22;;;;;;;13.32;2.35;;;2.60;99.90;;;;;;5093025;28;20570;-70
2021/12/11 03:51:50;;;;;;;12.10;2.95;;;2.60;99.90;;;;;;5093019;28;20074;-70
2021/12/11 03:54:26;;;;;;;10.90;2.88;;;2.60;99.90;;;;;;5074753;28;20126;-69
2021/12/11 03:56:53;;;;;;;11.50;2.50;;;2.60;99.90;;;;;;5092945;28;20090;-70
2021/12/11 03:59:19;;;;;;;11.55;2.88;;;2.60;99.90;;;;;;5077010;28;20060;-70
2021/12/11 04:01:50;;;;;;;14.68;2.80;;;2.50;99.90;;;;;;5078889;28;20093;-69
2021/12/11 04:04:21;;;;;;;15.40;3.42;;;2.50;99.90;;;;;;5096726;28;20123;-69
2021/12/11 04:06:48;;;;;;;8.98;3.55;;;2.50;99.90;;;;;;5096808;28;20434;-70
2021/12/11 04:09:15;;;;;;;9.38;3.00;;;2.50;99.90;;;;;;5096839;28;20119;-70
2021/12/11 04:11:41;;;;;;;12.50;3.13;;;2.50;99.90;;;;;;5078311;28;20487;-71
2021/12/11 04:14:14;;;;;;;8.45;2.60;;;2.50;99.90;;;;;;5078559;28;20558;-70
2021/12/11 04:16:40;;;;;;;9.95;2.55;;;2.50;99.90;;;;;;5096522;28;20053;-71
2021/12/11 04:19:08;;;;;;;10.52;2.67;;;2.50;99.90;;;;;;5096425;28;20109;-70
2021/12/11 04:21:34;;;;;;;11.02;2.85;;;2.40;99.90;;;;;;5096472;28;20028;-70
2021/12/11 04:24:03;;;;;;;11.50;3.45;;;2.40;99.90;;;;;;5096486;28;20040;-70
2021/12/11 04:26:28;;;;;;;10.25;2.38;;;2.40;99.90;;;;;;5078100;28;20054;-70
2021/12/11 04:28:54;;;;;;;10.93;2.30;;;2.40;99.90;;;;;;5096479;28;20048;-70
2021/12/11 04:31:23;;;;;;;9.65;2.70;;;2.40;99.90;;;;;;5096176;28;20040;-72
2021/12/11 04:33:51;;;;;;;12.70;3.78;;;2.40;99.90;;;;;;5096214;28;20040;-69
2021/12/11 04:36:23;;;;;;;12.23;3.55;;;2.40;99.90;;;;;;5078320;28;20044;-70
2021/12/11 04:38:50;;;;;;;12.63;2.75;;;2.50;99.90;;;;;;5096169;28;20151;-70
2021/12/11 04:41:22;;;;;;;10.88;2.90;;;2.50;99.90;;;;;;5077988;28;20043;-77
2021/12/11 04:43:50;;;;;;;11.32;3.70;;;2.40;99.90;;;;;;5095866;28;20078;-72
2021/12/11 04:46:16;;;;;;;12.00;2.55;;;2.40;99.90;;;;;;5077671;28;20522;-74
2021/12/11 04:51:27;;;;;;;11.65;3.00;;;2.40;99.90;;;;;;5096190;28;20149;-70
2021/12/11 04:54:11;;;;;;;13.38;2.95;;;2.40;99.90;;;;;;5095911;28;20124;-70
2021/12/11 05:04:57;;;;;;;11.15;2.97;;;2.50;99.90;;;;;;5096011;28;20032;-70
2021/12/11 05:07:31;;;;;;;17.55;3.47;;;2.40;99.90;;;;;;5095852;28;20063;-70
2021/12/11 05:10:21;;;;;;;9.40;2.92;;;2.40;99.90;;;;;;5095257;28;20048;-71
2021/12/11 05:12:51;;;;;;;10.93;3.38;;;2.50;99.90;;;;;;5095566;28;20076;-70
2021/12/11 05:15:24;;;;;;;16.33;3.50;;;2.40;99.90;;;;;;5077461;28;20552;-70
2021/12/11 05:17:50;;;;;;;12.52;3.15;;;2.30;99.90;;;;;;5095316;28;20040;-73
2021/12/11 05:20:19;;;;;;;14.07;3.25;;;2.30;99.90;;;;;;5077052;28;20066;-70
2021/12/11 05:22:45;;;;;;;11.70;3.13;;;2.30;99.90;;;;;;5095666;28;20077;-70
2021/12/11 05:25:12;;;;;;;10.00;3.03;;;2.20;99.90;;;;;;5095580;28;20043;-70
2021/12/11 05:27:39;;;;;;;10.45;2.75;;;2.20;99.90;;;;;;5095413;28;20055;-70
2021/12/11 05:30:14;;;;;;;11.48;2.92;;;2.20;99.90;;;;;;5077314;28;20036;-70
2021/12/11 05:32:39;;;;;;;12.73;2.97;;;2.20;99.90;;;;;;5095285;28;20035;-70
2021/12/11 05:35:08;;;;;;;8.55;2.85;;;2.20;99.90;;;;;;5095078;28;20039;-70
2021/12/11 05:37:34;;;;;;;10.55;3.22;;;2.30;99.90;;;;;;5095327;28;20044;-70
2021/12/11 05:40:00;;;;;;;18.85;3.40;;;2.30;99.90;;;;;;5095058;28;20043;-70
2021/12/11 05:42:26;;;;;;;7.20;2.67;;;2.30;99.90;;;;;;5095226;28;20047;-70
2021/12/11 05:44:52;;;;;;;9.90;3.33;;;2.30;99.90;;;;;;5095153;28;20565;-70
2021/12/11 05:47:20;;;;;;;10.27;2.70;;;2.30;99.90;;;;;;5094646;28;20085;-70
2021/12/11 05:49:46;;;;;;;10.48;2.55;;;2.40;99.90;;;;;;5094612;28;20081;-70
2021/12/11 05:52:13;;;;;;;9.85;2.75;;;2.30;99.90;;;;;;5094597;28;20040;-70
2021/12/11 05:54:43;;;;;;;9.13;2.83;;;2.50;99.90;;;;;;5094406;28;20118;-69
2021/12/11 05:57:12;;;;;;;11.02;3.95;;;2.40;99.90;;;;;;5094702;28;20044;-72
2021/12/11 05:59:41;;;;;;;8.82;2.95;;;2.30;99.90;;;;;;5076526;28;20085;-69
2021/12/11 06:02:16;;;;;;;8.68;2.60;;;2.30;99.90;;;;;;5094673;28;20040;-70
2021/12/11 06:04:45;;;;;;;12.18;3.00;;;2.30;99.90;;;;;;5094713;28;20085;-70
2021/12/11 06:07:13;;;;;;;8.98;3.47;;;2.40;99.90;;;;;;5094521;28;20052;-70
2021/12/11 06:09:43;;;;;;;7.28;2.85;;;2.40;99.90;;;;;;5092963;28;20036;-69
2021/12/11 06:12:13;;;;;;;12.02;2.65;;;2.40;99.90;;;;;;5082320;28;20509;-70
2021/12/11 06:14:41;;;;;;;11.65;2.70;;;2.30;99.90;;;;;;5073062;28;20081;-70
2021/12/11 06:17:10;;;;;;;10.15;2.65;;;2.40;99.90;;;;;;5074166;28;20044;-69
2021/12/11 06:19:37;;;;;;;7.32;2.53;;;2.40;99.90;;;;;;5073812;28;20040;-70
2021/12/11 06:22:03;;;;;;;9.95;2.75;;;2.40;99.90;;;;;;5074042;28;20036;-70
2021/12/11 06:24:30;;;;;;;11.55;2.80;;;2.40;99.90;;;;;;5074037;28;20035;-70
2021/12/11 06:26:57;;;;;;;8.20;2.38;;;2.40;99.90;;;;;;5074018;28;20055;-70
2021/12/11 06:29:23;;;;;;;10.75;2.95;;;2.40;99.90;;;;;;5073913;28;20423;-70
2021/12/11 06:31:51;;;;;;;8.65;2.83;;;2.40;99.90;;;;;;5055753;28;20127;-70
2021/12/11 06:34:17;;;;;;;9.88;3.13;;;2.50;99.90;;;;;;5073684;28;20098;-69
2021/12/11 06:36:45;;;;;;;8.52;2.88;;;2.40;99.90;;;;;;5073797;28;20036;-70
2021/12/11 06:39:16;;;;;;;13.07;3.58;;;2.30;99.90;;;;;;5081089;28;20524;-70
2021/12/11 06:41:44;;;;;;;9.55;2.95;;;2.30;99.90;;;;;;5094050;28;20047;-71
2021/12/11 06:44:10;;;;;;;7.63;3.10;;;2.20;99.90;;;;;;5093871;28;20039;-70
2021/12/11 06:46:37;;;;;;;11.15;3.10;;;2.20;99.90;;;;;;5075462;28;20101;-70
2021/12/11 06:49:04;;;;;;;7.07;2.60;;;2.10;99.90;;;;;;5075669;28;20036;-70
2021/12/11 06:51:31;;;;;;;7.72;2.95;;;2.30;99.90;;;;;;5093794;28;20040;-70
2021/12/11 06:54:00;;;;;;;11.20;3.40;;;2.10;99.90;;;;;;5093737;28;20044;-70
2021/12/11 06:56:26;;;;;;;11.57;3.10;;;1.90;99.90;;;;;;5093539;28;20040;-73
2021/12/11 06:58:54;;;;;;;11.65;3.22;;;2.00;99.90;;;;;;5093444;28;20070;-71
2021/12/11 07:01:22;;;;;;;7.65;2.88;;;2.20;99.90;;;;;;5093426;28;20061;-70
2021/12/11 07:03:49;;;;;;;11.40;3.53;;;1.90;99.90;;;;;;5093594;28;20046;-70
2021/12/11 07:06:15;;;;;;;9.60;2.50;;;1.90;99.90;;;;;;5075168;28;20046;-70
2021/12/11 07:08:42;;;;;;;7.90;2.28;;;1.90;99.90;;;;;;5075246;28;20180;-70
2021/12/11 07:11:11;;;;;;;10.70;3.60;;;1.90;99.90;;;;;;5093408;28;20024;-74
2021/12/11 07:13:38;;;;;;;11.77;3.70;;;1.90;99.90;;;;;;5075271;28;20044;-70
2021/12/11 07:16:05;;;;;;;11.95;3.47;;;1.80;99.90;;;;;;5093360;28;20044;-70
2021/12/11 07:18:31;;;;;;;29.63;3.65;;;1.80;99.90;;;;;;5093212;28;20064;-72
2021/12/11 07:20:58;;;;;;;8.93;2.92;;;1.90;99.90;;;;;;5075106;28;20046;-70
2021/12/11 07:23:24;;;;;;;10.95;3.17;;;1.80;99.90;;;;;;5075163;28;20053;-70
2021/12/11 07:25:58;;;;;;;15.68;6.75;;;1.90;99.90;;;;;;5075263;28;20109;-70
2021/12/11 07:28:25;;;;;;;9.10;2.72;;;1.90;99.90;;;;;;5092990;28;20083;-71
2021/12/11 07:30:53;;;;;;;8.93;3.35;;;1.90;99.90;;;;;;5075179;28;20032;-71
2021/12/11 07:33:19;;;;;;;7.15;2.95;;;2.00;99.90;;;;;;5074624;28;20453;-72
2021/12/11 07:35:47;;;;;;;16.05;6.32;;;2.40;99.90;;;;;;5093086;28;20454;-70
2021/12/11 07:38:14;;;;;;;13.00;5.78;;;2.20;99.90;;;;;;5075174;28;20103;-71
2021/12/11 07:40:44;;;;;;;31.67;14.52;;;2.10;99.90;;;;;;5092756;28;20051;-70
2021/12/11 07:43:12;;;;;;;12.32;4.80;;;2.10;99.90;;;;;;5092988;28;20109;-71
2021/12/11 07:45:39;;;;;;;7.35;3.00;;;2.10;99.90;;;;;;5074952;28;20074;-70
2021/12/11 07:48:05;;;;;;;13.30;3.42;;;2.20;99.90;;;;;;5092804;28;20040;-70
2021/12/11 07:50:31;;;;;;;8.68;3.33;;;2.10;99.90;;;;;;5074955;28;20036;-70
2021/12/11 07:52:58;;;;;;;9.77;4.47;;;2.10;99.90;;;;;;5075064;28;20082;-70
2021/12/11 07:55:24;;;;;;;16.45;7.72;;;2.20;99.90;;;;;;5092777;28;20538;-70
2021/12/11 07:57:50;;;;;;;9.43;3.50;;;2.30;99.90;;;;;;5074822;28;20028;-70
2021/12/11 08:00:20;;;;;;;8.05;2.80;;;2.30;99.90;;;;;;5092685;28;20112;-76
2021/12/11 08:02:46;;;;;;;11.40;3.53;;;2.40;99.90;;;;;;5086673;28;20029;-70
2021/12/11 08:05:12;;;;;;;10.38;3.72;;;2.70;99.90;;;;;;5082325;28;20044;-70
2021/12/11 08:07:39;;;;;;;7.63;2.85;;;2.80;99.90;;;;;;5054333;28;20056;-70
2021/12/11 08:10:08;;;;;;;19.40;8.35;;;2.70;99.90;;;;;;5054485;28;20063;-76
2021/12/11 08:12:34;;;;;;;58.70;24.88;;;2.80;99.90;;;;;;5072468;28;20040;-70
2021/12/11 08:15:00;;;;;;;47.70;21.10;;;2.70;99.90;;;;;;5072534;28;20060;-70
2021/12/11 08:17:26;;;;;;;14.55;6.45;;;2.90;99.90;;;;;;5072735;28;20556;-71
2021/12/11 08:19:52;;;;;;;52.58;21.25;;;3.00;99.90;;;;;;5079983;28;20040;-74
2021/12/11 08:22:18;;;;;;;40.17;19.23;;;3.20;99.90;;;;;;5092166;28;20058;-70
2021/12/11 08:24:44;;;;;;;30.52;11.50;;;3.20;99.90;;;;;;5091603;28;20077;-71
2021/12/11 08:27:16;;;;;;;12.75;5.55;;;3.00;99.90;;;;;;5091423;28;20458;-78
2021/12/11 08:29:45;;;;;;;13.80;5.50;;;3.40;99.90;;;;;;5073905;28;20039;-70
2021/12/11 08:32:11;;;;;;;10.40;4.32;;;3.50;99.90;;;;;;5089146;28;20031;-74
2021/12/11 08:34:38;;;;;;;12.63;4.80;;;3.20;99.90;;;;;;5092508;28;20036;-70
2021/12/11 08:37:08;;;;;;;13.15;4.50;;;3.20;99.90;;;;;;5099596;28;20044;-70
2021/12/11 08:39:35;;;;;;;13.80;3.85;;;3.10;99.90;;;;;;5095127;28;20394;-71
2021/12/11 08:42:05;;;;;;;11.73;4.20;;;2.80;99.90;;;;;;5094664;28;20122;-70
2021/12/11 08:44:39;;;;;;;14.75;3.95;;;3.00;99.90;;;;;;5112912;28;20110;-78
2021/12/11 08:47:15;;;;;;;12.18;3.30;;;2.90;99.90;;;;;;5115809;28;20582;-76
2021/12/11 08:49:41;;;;;;;10.20;3.42;;;3.00;99.90;;;;;;5116895;28;20039;-70
2021/12/11 08:52:17;;;;;;;9.80;3.78;;;3.10;99.90;;;;;;5116444;28;20028;-71
2021/12/11 08:54:43;;;;;;;12.57;3.67;;;3.10;99.90;;;;;;5116424;28;20384;-71
2021/12/11 08:57:13;;;;;;;7.90;3.00;;;3.10;99.90;;;;;;5116306;28;20555;-78
2021/12/11 08:59:42;;;;;;;7.80;2.42;;;3.20;99.90;;;;;;5097705;28;20040;-70
2021/12/11 09:02:21;;;;;;;6.95;2.88;;;3.00;99.90;;;;;;5116063;28;20034;-70
2021/12/11 09:05:04;;;;;;;8.80;3.00;;;3.00;99.90;;;;;;5116600;28;20047;-70
2021/12/11 09:07:39;;;;;;;8.52;3.70;;;3.00;99.90;;;;;;5086784;28;20533;-70
2021/12/11 09:10:16;;;;;;;17.70;3.88;;;3.20;99.90;;;;;;5095842;28;20063;-70
2021/12/11 09:12:58;;;;;;;10.35;3.17;;;3.30;99.90;;;;;;5095673;28;20032;-78
2021/12/11 09:15:53;;;;;;;14.75;3.35;;;3.50;99.90;;;;;;5095801;28;20039;-70
2021/12/11 09:18:26;;;;;;;10.60;3.60;;;3.50;99.90;;;;;;5068902;28;20047;-74
2021/12/11 09:20:58;;;;;;;7.20;3.40;;;3.40;99.90;;;;;;5077136;28;20417;-70
2021/12/11 09:23:35;;;;;;;13.18;3.35;;;3.30;99.90;;;;;;5077386;28;20574;-77
2021/12/11 09:26:09;;;;;;;10.13;3.83;;;3.60;99.90;;;;;;5077304;28;20052;-71
2021/12/11 09:29:06;;;;;;;11.35;5.00;;;3.80;99.90;;;;;;5095239;28;20094;-70
2021/12/11 09:31:32;;;;;;;10.98;4.28;;;3.50;99.90;;;;;;5089396;28;20107;-70
2021/12/11 09:34:12;;;;;;;14.57;5.32;;;3.60;99.90;;;;;;5095234;28;20118;-70
2021/12/11 09:36:44;;;;;;;10.35;5.07;;;3.40;99.90;;;;;;5077250;28;20056;-78
2021/12/11 09:39:31;;;;;;;11.13;2.80;;;3.40;99.90;;;;;;5095253;28;20113;-79
2021/12/11 09:41:57;;;;;;;14.55;7.07;;;3.80;99.90;;;;;;5095083;28;20050;-70
2021/12/11 09:44:29;;;;;;;10.63;4.95;;;4.00;99.90;;;;;;5095286;28;20032;-70
2021/12/11 09:47:01;;;;;;;15.48;5.47;;;;;;;;;;5094762;28;20036;-70
2021/12/11 09:49:30;;;;;;;17.70;5.45;;;;;;;;;;5094679;28;20048;-71
2021/12/11 09:52:04;;;;;;;9.38;3.35;;;;;;;;;;5094943;28;20058;-71
2021/12/11 09:54:34;;;;;;;7.38;2.67;;;;;;;;;;5094797;28;20048;-71
2021/12/11 09:57:02;;;;;;;13.95;2.80;;;;;;;;;;5087853;28;20040;-72
2021/12/11 09:59:31;;;;;;;8.32;3.03;;;4.00;99.90;;;;;;5076997;28;20543;-73
2021/12/11 10:02:04;;;;;;;9.90;2.88;;;3.90;99.90;;;;;;5056528;28;20059;-70
2021/12/11 10:04:58;;;;;;;11.73;3.20;;;3.80;99.90;;;;;;5056525;28;20024;-70
2021/12/11 10:07:37;;;;;;;9.85;2.58;;;;;;;;;;5056262;28;20404;-78
2021/12/11 10:10:09;;;;;;;10.95;3.13;;;;;;;;;;5074457;28;20044;-70
2021/12/11 10:12:39;;;;;;;13.18;3.00;;;3.70;99.90;;;;;;5074324;28;20048;-70
2021/12/11 10:15:41;;;;;;;9.88;2.80;;;3.80;99.90;;;;;;5079501;28;20039;-71
2021/12/11 10:18:18;;;;;;;10.40;3.88;;;3.70;99.90;;;;;;5063799;28;20126;-74
2021/12/11 10:21:13;;;;;;;12.05;3.03;;;3.70;99.90;;;;;;5073699;28;20046;-70
2021/12/11 10:23:43;;;;;;;10.63;2.38;;;3.80;99.90;;;;;;5091702;28;20644;-71
2021/12/11 10:26:11;;;;;;;13.43;4.37;;;;;;;;;;5089284;28;20123;-71
2021/12/11 10:28:40;;;;;;;10.48;5.90;;;3.70;99.90;;;;;;5079715;28;20052;-71
2021/12/11 10:31:10;;;;;;;9.68;3.30;;;3.90;99.90;;;;;;5081960;28;20098;-74
2021/12/11 10:33:37;;;;;;;10.97;3.60;;;;;;;;;;5074944;28;20043;-72
2021/12/11 10:36:08;;;;;;;15.77;8.15;;;;;;;;;;5074853;28;20040;-71
2021/12/11 10:38:33;;;;;;;;;;;4.10;99.90;;;;;;5090095;28;20541;-70
2021/12/11 10:41:03;;;;;;;8.45;3.83;;;4.20;99.90;;;;;;5080745;28;20003;-70
2021/12/11 10:43:46;;;;;;;10.07;3.05;;;4.20;99.90;;;;;;5054076;28;20036;-72
2021/12/11 10:46:15;;;;;;;8.15;3.80;;;4.10;99.90;;;;;;5070381;28;20028;-78
2021/12/11 10:48:42;;;;;;;10.75;4.20;;;4.10;99.90;;;;;;5052417;28;20423;-75
2021/12/11 10:51:30;;;;;;;8.85;2.72;;;4.30;99.90;;;;;;5070583;28;20040;-73
2021/12/11 10:53:57;;;;;;;12.27;4.20;;;;;;;;;;5072019;28;20040;-72
2021/12/11 10:56:27;;;;;;;8.15;2.72;;;3.90;99.90;;;;;;5071042;28;20076;-71
2021/12/11 10:58:56;;;;;;;10.70;3.38;;;;;;;;;;5052943;28;20076;-71
2021/12/11 11:01:27;;;;;;;11.32;2.67;;;;;;;;;;5078878;28;20090;-79
2021/12/11 11:03:59;;;;;;;7.72;2.72;;;;;;;;;;5090651;28;20113;-70
2021/12/11 11:06:25;;;;;;;7.88;2.70;;;;;;;;;;5091221;28;20719;-71
2021/12/11 11:08:51;;;;;;;13.05;3.78;;;;;;;;;;5072186;28;20135;-73
2021/12/11 11:11:21;;;;;;;9.25;4.07;;;4.50;99.90;;;;;;5081926;28;20032;-70
2021/12/11 11:13:47;;;;;;;8.07;2.60;;;4.30;99.90;;;;;;5070788;28;20395;-71
2021/12/11 11:16:14;;;;;;;7.25;3.30;;;4.30;99.90;;;;;;5053257;28;20470;-74
2021/12/11 11:18:41;;;;;;;8.65;3.33;;;;;;;;;;5069744;28;20132;-70
2021/12/11 11:21:12;;;;;;;12.48;5.22;;;;;;;;;;5070782;28;20090;-78
2021/12/11 11:23:39;;;;;;;13.50;4.57;;;;;;;;;;5068607;28;20040;-72
2021/12/11 11:26:09;;;;;;;6.97;2.92;;;;;;;;;;5096492;28;20047;-70
2021/12/11 11:28:38;;;;;;;8.57;4.72;;;;;;;;;;5095865;28;20210;-71
2021/12/11 11:31:08;;;;;;;12.15;3.17;;;;;;;;;;5090550;28;20093;-70
2021/12/11 11:33:34;;;;;;;10.68;3.55;;;;;;;;;;5092648;28;20050;-70
2021/12/11 11:36:02;;;;;;;9.23;3.47;;;;;;;;;;5087515;28;20453;-69
2021/12/11 11:38:33;;;;;;;8.77;3.30;;;5.30;99.90;;;;;;5098819;28;20057;-69
2021/12/11 11:41:14;;;;;;;13.30;5.28;;;5.20;99.90;;;;;;5096284;28;20039;-70
2021/12/11 11:43:41;;;;;;;8.48;3.55;;;5.20;99.90;;;;;;5082168;28;20043;-70
2021/12/11 11:46:08;;;;;;;19.15;5.35;;;5.20;99.90;;;;;;5095522;28;20044;-70
2021/12/11 11:48:37;;;;;;;10.48;4.00;;;5.80;99.90;;;;;;5080820;28;20047;-71
2021/12/11 11:51:07;;;;;;;7.80;3.42;;;5.80;99.90;;;;;;5082791;28;20031;-70
2021/12/11 11:53:33;;;;;;;9.05;3.22;;;6.00;99.90;;;;;;5075578;28;20036;-71
2021/12/11 11:56:06;;;;;;;6.57;2.40;;;5.30;99.90;;;;;;5083641;28;20551;-70
2021/12/11 11:58:33;;;;;;;10.45;4.10;;;4.50;99.90;;;;;;5078088;28;20483;-70
2021/12/11 12:01:15;;;;;;;13.93;4.30;;;5.10;99.90;;;;;;5072471;28;20036;-70
2021/12/11 12:03:41;;;;;;;10.10;4.50;;;;;;;;;;5053688;28;20364;-70
2021/12/11 12:06:11;;;;;;;9.68;3.13;;;;;;;;;;5052304;28;20538;-70
2021/12/11 12:08:42;;;;;;;8.70;2.28;;;6.30;99.90;;;;;;5070618;28;20050;-70
2021/12/11 12:11:10;;;;;;;11.07;3.05;;;5.50;99.90;;;;;;5067176;28;20036;-70
2021/12/11 12:13:37;;;;;;;12.23;3.58;;;5.50;99.90;;;;;;5073483;28;20054;-71
2021/12/11 12:16:06;;;;;;;10.13;2.50;;;;;;;;;;5073018;28;20607;-70
2021/12/11 12:18:33;;;;;;;12.80;3.65;;;6.40;99.90;;;;;;5091092;28;20031;-70
2021/12/11 12:21:04;;;;;;;11.38;2.88;;;6.40;99.90;;;;;;5059252;28;20039;-71
2021/12/11 12:23:32;;;;;;;5.82;3.05;;;5.80;99.90;;;;;;5083784;28;20501;-70
2021/12/11 12:26:02;;;;;;;7.93;2.38;;;5.90;99.90;;;;;;5079795;28;20051;-71
2021/12/11 12:28:30;;;;;;;8.93;2.33;;;5.60;99.90;;;;;;5070781;28;20147;-70
2021/12/11 12:31:00;;;;;;;6.38;2.03;;;5.80;99.90;;;;;;5055992;28;20043;-71
2021/12/11 12:33:28;;;;;;;8.68;2.08;;;5.60;99.90;;;;;;5055179;28;20190;-70
2021/12/11 12:35:56;;;;;;;6.40;2.67;;;5.70;99.90;;;;;;5055904;28;20186;-70
2021/12/11 12:38:24;;;;;;;5.82;2.33;;;5.60;99.90;;;;;;5110321;28;20046;-70
2021/12/11 12:41:06;;;;;;;7.85;2.38;;;5.60;99.90;;;;;;5104485;28;20594;-70
2021/12/11 12:43:55;;;;;;;9.68;4.60;;;5.50;99.90;;;;;;5076492;28;20039;-70
2021/12/11 12:46:34;;;;;;;12.02;3.80;;;5.50;99.90;;;;;;5075880;28;20035;-70
2021/12/11 12:49:01;;;;;;;7.97;3.00;;;5.50;99.90;;;;;;5057628;28;20044;-71
2021/12/11 12:51:31;;;;;;;12.13;4.93;;;5.50;99.90;;;;;;5092442;28;20097;-70
2021/12/11 12:53:58;;;;;;;13.93;3.95;;;5.80;99.90;;;;;;5075519;28;20047;-70
2021/12/11 12:56:28;;;;;;;7.43;2.05;;;6.10;99.90;;;;;;5075776;28;20046;-70
2021/12/11 12:59:44;;;;;;;5.88;2.40;;;6.00;99.90;;;;;;5094214;28;20138;-70
2021/12/11 13:02:18;;;;;;;7.22;2.17;;;5.80;99.90;;;;;;5057789;28;20040;-71
2021/12/11 13:05:12;;;;;;;5.53;1.80;;;5.80;99.90;;;;;;5075350;28;20551;-70
2021/12/11 13:07:38;;;;;;;7.50;1.77;;;5.50;99.90;;;;;;5075217;28;20048;-70
2021/12/11 13:10:11;;;;;;;8.02;1.88;;;5.40;99.90;;;;;;5077092;28;20067;-70
2021/12/11 13:12:42;;;;;;;9.77;1.90;;;5.20;99.90;;;;;;5092244;28;20035;-70
2021/12/11 13:15:32;;;;;;;6.90;1.92;;;5.50;99.90;;;;;;5113850;28;20063;-70
2021/12/11 13:18:00;;;;;;;10.77;2.28;;;5.80;99.90;;;;;;5078194;28;20043;-70
2021/12/11 13:20:52;;;;;;;14.02;6.68;;;5.80;99.90;;;;;;5113709;28;20551;-70
2021/12/11 13:23:18;;;;;;;12.27;2.85;;;5.70;99.90;;;;;;5094808;28;20039;-70
2021/12/11 13:25:57;;;;;;;18.10;10.85;;;5.10;99.90;;;;;;5114378;28;20095;-71
2021/12/11 13:28:25;;;;;;;12.45;4.85;;;5.10;99.90;;;;;;5075050;28;20509;-70
2021/12/11 13:30:55;;;;;;;24.42;15.75;;;5.20;99.90;;;;;;5088184;28;20377;-70